createdAt,value
2023-05-17T05:02:36.402Z,70.61
2023-05-17T05:07:39.896Z,70.97
2023-05-17T05:12:43.309Z,70.63
2023-05-17T05:17:45.072Z,70.50
2023-05-17T05:22:48.698Z,71.08
2023-05-17T05:27:52.309Z,71.39
2023-05-17T05:32:54.675Z,71.15
2023-05-17T05:37:57.436Z,71.06
2023-05-17T05:42:59.538Z,71.01
2023-05-17T05:48:01.310Z,71.00
2023-05-17T05:53:17.265Z,71.39
2023-05-17T05:58:25.203Z,71.43
2023-05-17T06:03:27.220Z,71.09
2023-05-17T06:08:28.784Z,71.62
2023-05-17T06:13:30.561Z,71.33
2023-05-17T06:18:33.098Z,71.73
2023-05-17T06:23:34.641Z,72.11
2023-05-17T06:28:37.100Z,71.11
2023-05-17T06:33:38.617Z,70.63
2023-05-17T06:38:40.297Z,70.66
2023-05-17T06:43:42.158Z,70.26
2023-05-17T06:48:43.882Z,70.55
2023-05-17T06:53:45.693Z,69.94
2023-05-17T06:58:47.369Z,69.57
2023-05-17T07:03:49.214Z,69.20
2023-05-17T07:08:51.130Z,68.54
2023-05-17T07:13:54.351Z,69.01
2023-05-17T07:18:57.442Z,68.00
2023-05-17T07:23:59.599Z,68.40
2023-05-17T07:29:01.203Z,68.14
2023-05-17T07:34:04.300Z,67.49
2023-05-17T07:39:05.876Z,66.89
2023-05-17T07:44:07.386Z,66.13
2023-05-17T07:49:09.002Z,65.78
2023-05-17T07:54:21.921Z,66.12
2023-05-17T07:59:23.883Z,66.33
2023-05-17T08:04:25.456Z,65.35
2023-05-17T08:09:26.938Z,64.43
2023-05-17T08:14:28.468Z,63.53
2023-05-17T08:19:30.116Z,63.25
2023-05-17T08:24:31.808Z,62.73
2023-05-17T08:29:33.336Z,62.37
2023-05-17T08:34:34.890Z,61.95
2023-05-17T08:39:36.399Z,61.37
2023-05-17T08:44:38.859Z,62.37
2023-05-17T08:49:40.642Z,62.38
2023-05-17T08:54:42.456Z,61.51
2023-05-17T08:59:45.841Z,61.58
2023-05-17T09:04:50.210Z,61.08
2023-05-17T09:09:53.582Z,61.64
2023-05-17T09:15:12.776Z,61.31
2023-05-17T09:20:24.156Z,60.95
2023-05-17T09:25:25.884Z,61.12
2023-05-17T09:30:32.012Z,60.52
2023-05-17T09:35:34.891Z,61.26
2023-05-17T09:40:39.316Z,61.20
2023-05-17T09:45:41.169Z,59.90
2023-05-17T09:50:47.654Z,60.00
2023-05-17T09:55:49.287Z,60.13
2023-05-17T10:01:01.691Z,59.97
2023-05-17T10:06:06.515Z,59.88
2023-05-17T10:11:09.547Z,59.65
2023-05-17T10:16:12.099Z,58.69
2023-05-17T10:21:14.480Z,57.60
2023-05-17T10:26:16.211Z,56.67
2023-05-17T10:31:17.864Z,56.33
2023-05-17T10:36:19.903Z,56.34
2023-05-17T10:41:24.262Z,55.26
2023-05-17T10:46:25.827Z,53.84
2023-05-17T10:51:34.085Z,53.07
2023-05-17T10:56:38.752Z,52.59
2023-05-17T11:02:06.477Z,52.29
2023-05-17T11:07:17.293Z,52.46
2023-05-17T11:12:31.268Z,51.80
2023-05-17T11:17:50.981Z,52.19
2023-05-17T11:22:58.865Z,51.55
2023-05-17T11:28:00.733Z,51.49
2023-05-17T11:33:07.227Z,50.95
2023-05-17T11:38:18.898Z,50.30
2023-05-17T11:43:25.476Z,50.16
2023-05-17T11:48:27.558Z,50.77
2023-05-17T11:53:30.936Z,50.84
2023-05-17T11:58:33.136Z,50.70
2023-05-17T12:03:35.288Z,50.37
2023-05-17T12:08:38.833Z,49.51
2023-05-17T12:13:43.981Z,49.71
2023-05-17T12:18:49.622Z,49.35
2023-05-17T12:23:52.411Z,49.72
2023-05-17T12:29:01.068Z,49.39
2023-05-17T12:34:06.023Z,48.55
2023-05-17T12:39:09.933Z,48.09
2023-05-17T12:44:15.926Z,47.64
2023-05-17T12:49:18.617Z,48.45
2023-05-17T12:54:28.344Z,47.98
2023-05-17T12:59:29.910Z,47.21
2023-05-17T13:04:33.628Z,45.98
2023-05-17T13:09:47.248Z,45.26
2023-05-17T13:14:54.558Z,45.81
2023-05-17T13:19:57.993Z,44.97
2023-05-17T13:24:59.938Z,42.46
2023-05-17T13:30:01.580Z,42.48
2023-05-17T13:35:03.384Z,43.20
2023-05-17T13:40:05.583Z,44.55
2023-05-17T13:45:09.195Z,44.51
2023-05-17T13:50:12.032Z,43.99
2023-05-17T13:55:13.538Z,44.18
2023-05-17T14:00:16.128Z,44.26
2023-05-17T14:05:17.978Z,44.29
2023-05-17T14:10:19.547Z,43.98
2023-05-17T14:15:21.823Z,43.71
2023-05-17T14:20:23.415Z,44.41
2023-05-17T14:25:25.125Z,43.48
2023-05-17T14:30:26.751Z,43.25
2023-05-17T14:35:30.215Z,43.57
2023-05-17T14:40:32.643Z,43.00
2023-05-17T14:45:34.054Z,44.28
2023-05-17T14:50:35.794Z,44.18
2023-05-17T14:55:37.852Z,44.12
2023-05-17T15:00:41.533Z,43.84
2023-05-17T15:05:43.202Z,43.08
2023-05-17T15:10:44.747Z,42.99
2023-05-17T15:15:49.450Z,43.83
2023-05-17T15:20:51.040Z,43.47
2023-05-17T15:25:53.188Z,42.78
2023-05-17T15:31:02.797Z,43.06
2023-05-17T15:36:05.792Z,43.33
2023-05-17T15:41:14.207Z,43.19
2023-05-17T15:46:15.856Z,43.31
2023-05-17T15:51:17.656Z,42.51
2023-05-17T15:56:21.036Z,42.23
2023-05-17T16:01:22.576Z,41.51
2023-05-17T16:06:24.081Z,41.28
2023-05-17T16:11:25.584Z,41.04
2023-05-17T16:16:27.112Z,41.18
2023-05-17T16:21:28.765Z,40.67
2023-05-17T16:26:30.293Z,40.43
2023-05-17T16:31:31.901Z,39.00
2023-05-17T16:36:33.892Z,37.32
2023-05-17T16:41:35.778Z,35.88
2023-05-17T16:46:37.840Z,35.15
2023-05-17T16:51:39.477Z,37.54
2023-05-17T16:56:41.073Z,37.21
2023-05-17T17:01:42.637Z,37.26
2023-05-17T17:06:44.394Z,37.64
2023-05-17T17:11:46.365Z,37.93
2023-05-17T17:16:48.168Z,38.17
2023-05-17T17:21:50.515Z,38.04
2023-05-17T17:26:51.985Z,38.26
2023-05-17T17:31:55.105Z,38.43
2023-05-17T17:36:57.822Z,38.69
2023-05-17T17:41:59.347Z,39.06
2023-05-17T17:47:01.002Z,39.26
2023-05-17T17:52:02.921Z,39.52
2023-05-17T17:57:04.609Z,39.30
2023-05-17T18:02:06.664Z,39.12
2023-05-17T18:07:08.278Z,39.21
2023-05-17T18:12:09.938Z,39.06
2023-05-17T18:17:11.472Z,39.46
2023-05-17T18:22:15.942Z,39.27
2023-05-17T18:27:17.429Z,39.97
2023-05-17T18:32:19.025Z,40.18
2023-05-17T18:37:21.184Z,40.46
2023-05-17T18:42:24.903Z,40.66
2023-05-17T18:47:27.939Z,41.32
2023-05-17T18:52:29.574Z,41.59
2023-05-17T18:57:31.012Z,41.90
2023-05-17T19:02:32.545Z,42.34
2023-05-17T19:07:34.269Z,42.50
2023-05-17T19:12:35.981Z,42.63
2023-05-17T19:17:37.698Z,42.87
2023-05-17T19:22:39.259Z,42.88
2023-05-17T19:27:42.176Z,43.62
2023-05-17T19:32:43.673Z,43.75
2023-05-17T19:37:45.221Z,44.46
2023-05-17T19:42:46.757Z,44.09
2023-05-17T19:47:48.374Z,44.39
2023-05-17T19:52:49.917Z,44.92
2023-05-17T19:57:51.408Z,45.19
2023-05-17T20:02:52.993Z,45.02
2023-05-17T20:07:55.281Z,45.47
2023-05-17T20:12:57.763Z,45.75
2023-05-17T20:17:59.331Z,45.62
2023-05-17T20:23:00.957Z,45.80
2023-05-17T20:28:02.441Z,46.07
2023-05-17T20:33:04.132Z,46.17
2023-05-17T20:38:05.758Z,46.36
2023-05-17T20:43:08.118Z,46.50
2023-05-17T20:48:09.676Z,46.56
2023-05-17T20:53:11.245Z,46.12
2023-05-17T20:58:12.806Z,46.68
2023-05-17T21:03:14.491Z,46.96
2023-05-17T21:08:16.070Z,47.16
2023-05-17T21:13:17.850Z,47.25
2023-05-17T21:18:19.395Z,46.95
2023-05-17T21:23:21.000Z,47.09
2023-05-17T21:28:22.514Z,47.28
2023-05-17T21:33:23.993Z,47.28
2023-05-17T21:38:25.482Z,47.64
2023-05-17T21:43:27.035Z,47.20
2023-05-17T21:48:28.492Z,47.23
2023-05-17T21:53:29.952Z,47.31
2023-05-17T21:58:31.941Z,47.47
